createdAt,value
2018-01-25T00:01:41.876Z,1.30
2018-01-25T00:04:10.882Z,0.75
2018-01-25T00:06:39.341Z,2.67
2018-01-25T00:09:07.904Z,1.58
2018-01-25T00:11:36.317Z,1.12
2018-01-25T00:14:04.757Z,2.25
2018-01-25T00:16:33.492Z,0.93
2018-01-25T00:19:01.980Z,2.05
2018-01-25T00:21:30.436Z,1.00
2018-01-25T00:23:58.901Z,1.00
2018-01-25T00:26:27.341Z,1.37
2018-01-25T00:28:55.775Z,1.08
2018-01-25T00:31:24.235Z,1.33
2018-01-25T00:33:52.714Z,3.35
2018-01-25T00:36:21.274Z,1.40
2018-01-25T00:38:49.783Z,3.12
2018-01-25T00:41:18.319Z,1.95
2018-01-25T00:43:46.801Z,0.95
2018-01-25T00:46:15.432Z,1.95
2018-01-25T00:48:44.367Z,0.93
2018-01-25T00:51:13.234Z,1.33
2018-01-25T00:53:42.414Z,1.37
2018-01-25T00:56:10.890Z,1.00
2018-01-25T00:58:39.322Z,1.25
2018-01-25T01:01:08.666Z,2.70
2018-01-25T01:03:37.097Z,1.60
2018-01-25T01:06:05.520Z,1.70
2018-01-25T01:08:33.982Z,7.10
2018-01-25T01:11:03.409Z,3.55
2018-01-25T01:13:31.844Z,1.87
2018-01-25T01:16:00.303Z,2.45
2018-01-25T01:18:28.742Z,2.08
2018-01-25T01:20:57.200Z,6.87
2018-01-25T01:23:25.703Z,4.45
2018-01-25T01:25:54.176Z,0.80
2018-01-25T01:28:22.679Z,2.05
2018-01-25T01:30:51.150Z,0.93
2018-01-25T01:33:19.664Z,1.80
2018-01-25T01:35:48.157Z,1.85
2018-01-25T01:38:17.283Z,2.12
2018-01-25T01:40:45.939Z,3.03
2018-01-25T01:43:14.397Z,1.87
2018-01-25T01:45:43.148Z,6.15
2018-01-25T01:48:11.834Z,5.87
2018-01-25T01:50:40.471Z,2.17
2018-01-25T01:53:09.108Z,1.35
2018-01-25T01:55:37.565Z,3.00
2018-01-25T01:58:05.988Z,4.18
2018-01-25T02:00:34.454Z,2.45
2018-01-25T02:03:02.927Z,2.10
2018-01-25T02:05:31.349Z,2.00
2018-01-25T02:07:59.978Z,1.52
2018-01-25T02:10:28.402Z,9.35
2018-01-25T02:12:56.895Z,1.52
2018-01-25T02:15:25.557Z,3.80
2018-01-25T02:17:54.041Z,5.40
2018-01-25T02:20:22.500Z,3.00
2018-01-25T02:22:51.306Z,4.12
2018-01-25T02:25:19.888Z,2.95
2018-01-25T02:27:48.576Z,2.45
2018-01-25T02:30:17.499Z,2.72
2018-01-25T02:32:47.516Z,9.30
2018-01-25T02:35:15.972Z,6.10
2018-01-25T02:37:44.446Z,6.72
2018-01-25T02:40:13.029Z,5.37
2018-01-25T02:42:41.508Z,4.62
2018-01-25T02:45:10.103Z,3.87
2018-01-25T02:47:38.543Z,7.80
2018-01-25T02:50:06.969Z,6.10
2018-01-25T02:52:35.607Z,4.20
2018-01-25T02:55:04.019Z,3.25
2018-01-25T02:57:32.429Z,4.68
2018-01-25T03:00:00.876Z,4.25
2018-01-25T03:02:29.302Z,3.90
2018-01-25T03:04:57.702Z,6.78
2018-01-25T03:07:26.475Z,2.78
2018-01-25T03:09:54.874Z,6.57
2018-01-25T03:12:23.558Z,7.12
2018-01-25T03:14:51.993Z,3.00
2018-01-25T03:17:20.408Z,4.30
2018-01-25T03:19:49.124Z,4.90
2018-01-25T03:22:17.588Z,7.37
2018-01-25T03:24:46.044Z,6.45
2018-01-25T03:27:14.465Z,5.20
2018-01-25T03:29:43.434Z,10.90
2018-01-25T03:32:12.148Z,7.03
2018-01-25T03:34:40.645Z,5.15
2018-01-25T03:37:09.416Z,2.92
2018-01-25T03:39:37.841Z,1.73
2018-01-25T03:42:06.259Z,7.85
2018-01-25T03:44:34.685Z,6.10
2018-01-25T03:47:03.297Z,9.10
2018-01-25T03:49:31.702Z,10.00
2018-01-25T03:52:00.140Z,8.68
2018-01-25T03:54:28.547Z,3.58
2018-01-25T03:56:56.952Z,7.60
2018-01-25T03:59:25.480Z,7.25
2018-01-25T04:01:53.879Z,8.65
2018-01-25T04:04:22.418Z,5.22
2018-01-25T04:06:50.943Z,6.53
2018-01-25T04:09:19.544Z,10.98
2018-01-25T04:11:48.044Z,5.28
2018-01-25T04:14:16.515Z,12.15
2018-01-25T04:16:45.097Z,8.15
2018-01-25T04:19:13.528Z,16.30
2018-01-25T04:21:42.108Z,6.70
2018-01-25T04:24:10.677Z,8.55
2018-01-25T04:26:39.089Z,12.63
2018-01-25T04:29:07.530Z,5.25
2018-01-25T04:31:35.920Z,8.70
2018-01-25T04:34:04.320Z,6.00
2018-01-25T04:36:32.982Z,5.00
2018-01-25T04:39:02.357Z,6.55
2018-01-25T04:41:30.760Z,11.40
2018-01-25T04:43:59.222Z,5.07
2018-01-25T04:46:27.645Z,13.60
2018-01-25T04:48:56.131Z,16.25
2018-01-25T04:51:24.581Z,7.90
2018-01-25T04:53:52.985Z,9.88
2018-01-25T04:56:21.393Z,16.05
2018-01-25T04:58:50.140Z,14.90
2018-01-25T05:01:18.568Z,12.85
2018-01-25T05:03:46.997Z,8.20
2018-01-25T05:06:15.564Z,7.68
2018-01-25T05:08:44.418Z,12.02
2018-01-25T05:11:13.205Z,7.20
2018-01-25T05:13:42.096Z,4.25
2018-01-25T05:16:10.574Z,9.57
2018-01-25T05:18:39.017Z,6.75
2018-01-25T05:21:07.494Z,11.35
2018-01-25T05:23:35.927Z,9.77
2018-01-25T05:26:04.463Z,6.93
2018-01-25T05:28:33.119Z,14.85
2018-01-25T05:31:01.537Z,13.62
2018-01-25T05:33:29.980Z,13.57
2018-01-25T05:35:58.453Z,4.68
2018-01-25T05:38:26.888Z,7.50
2018-01-25T05:40:55.294Z,3.00
2018-01-25T05:43:24.003Z,9.48
2018-01-25T05:45:52.417Z,11.38
2018-01-25T05:48:20.899Z,10.00
2018-01-25T05:50:49.337Z,21.62
2018-01-25T05:53:17.792Z,21.55
2018-01-25T05:55:46.481Z,15.93
2018-01-25T05:58:14.988Z,15.00
2018-01-25T06:00:43.417Z,9.07
2018-01-25T06:03:11.844Z,12.50
2018-01-25T06:05:40.411Z,25.35
2018-01-25T06:08:08.733Z,28.02
2018-01-25T06:10:37.133Z,11.63
2018-01-25T06:13:05.818Z,16.58
2018-01-25T06:15:34.237Z,8.02
2018-01-25T06:18:02.673Z,10.57
2018-01-25T06:20:31.114Z,7.78
2018-01-25T06:22:59.552Z,14.45
2018-01-25T06:25:27.953Z,19.08
2018-01-25T06:27:56.645Z,9.07
2018-01-25T06:30:25.119Z,9.20
2018-01-25T06:32:53.521Z,12.82
2018-01-25T06:35:21.977Z,6.62
2018-01-25T06:37:50.505Z,17.45
2018-01-25T06:40:18.979Z,20.20
2018-01-25T06:42:47.446Z,16.80
2018-01-25T06:45:15.889Z,21.08
2018-01-25T06:47:44.395Z,18.73
2018-01-25T06:50:12.966Z,11.85
2018-01-25T06:52:41.594Z,14.63
2018-01-25T06:55:10.069Z,15.05
2018-01-25T06:57:39.025Z,19.02
2018-01-25T07:00:07.461Z,19.67
2018-01-25T07:02:35.886Z,18.98
2018-01-25T07:05:04.669Z,12.75
2018-01-25T07:07:33.109Z,23.42
2018-01-25T07:10:01.574Z,15.45
2018-01-25T07:12:30.157Z,14.15
2018-01-25T07:14:58.595Z,13.20
2018-01-25T07:17:27.060Z,36.63
2018-01-25T07:19:55.618Z,14.30
2018-01-25T07:22:24.070Z,12.45
2018-01-25T07:24:52.515Z,15.48
2018-01-25T07:27:21.141Z,22.50
2018-01-25T07:29:49.728Z,18.98
2018-01-25T07:32:18.190Z,10.20
2018-01-25T07:34:47.073Z,21.75
2018-01-25T07:37:15.501Z,11.38
2018-01-25T07:39:44.215Z,10.05
2018-01-25T07:42:13.071Z,15.18
2018-01-25T07:44:41.539Z,20.25
2018-01-25T07:47:09.971Z,18.17
2018-01-25T07:49:38.757Z,20.00
2018-01-25T07:52:07.169Z,15.55
2018-01-25T07:54:35.849Z,8.70
2018-01-25T07:57:04.909Z,18.35
2018-01-25T07:59:33.335Z,15.85
2018-01-25T08:02:01.831Z,23.52
2018-01-25T08:04:30.285Z,15.95
2018-01-25T08:06:58.718Z,20.48
2018-01-25T08:09:28.881Z,18.75
2018-01-25T08:11:57.334Z,18.17
2018-01-25T08:14:25.896Z,15.82
2018-01-25T08:16:54.353Z,18.80
2018-01-25T08:19:22.816Z,8.30
2018-01-25T08:21:51.247Z,17.40
2018-01-25T08:24:19.691Z,19.10
2018-01-25T08:26:48.374Z,13.82
2018-01-25T08:29:16.855Z,19.95
2018-01-25T08:31:45.678Z,19.40
2018-01-25T08:34:14.433Z,11.95
2018-01-25T08:36:42.982Z,19.45
2018-01-25T08:39:11.542Z,16.12
2018-01-25T08:41:40.208Z,15.10
2018-01-25T08:44:08.619Z,14.25
2018-01-25T08:46:37.093Z,24.45
2018-01-25T08:49:05.621Z,11.77
2018-01-25T08:51:34.050Z,11.88
2018-01-25T08:54:02.472Z,17.05
2018-01-25T08:56:31.206Z,44.55
2018-01-25T08:58:59.605Z,16.02
2018-01-25T09:01:28.020Z,16.00
2018-01-25T09:03:56.460Z,31.02
2018-01-25T09:06:25.376Z,22.27
2018-01-25T09:08:53.817Z,28.60
2018-01-25T09:11:22.289Z,10.57
2018-01-25T09:13:50.934Z,18.05
2018-01-25T09:16:19.379Z,18.12
2018-01-25T09:18:48.146Z,13.88
2018-01-25T09:21:16.605Z,17.73
2018-01-25T09:23:45.210Z,14.95
2018-01-25T09:26:13.750Z,30.52
2018-01-25T09:28:42.267Z,18.55
2018-01-25T09:31:11.678Z,36.08
2018-01-25T09:33:40.173Z,18.30
2018-01-25T09:36:08.628Z,15.15
2018-01-25T09:38:37.070Z,24.27
2018-01-25T09:41:05.683Z,18.40
2018-01-25T09:43:34.132Z,27.83
2018-01-25T09:46:02.774Z,10.68
2018-01-25T09:48:31.468Z,23.75
2018-01-25T09:50:59.888Z,24.40
2018-01-25T09:53:28.305Z,27.60
2018-01-25T09:55:56.761Z,12.63
2018-01-25T09:58:25.170Z,18.80
2018-01-25T10:00:53.698Z,40.25
2018-01-25T10:03:22.206Z,23.98
2018-01-25T10:05:50.637Z,14.68
2018-01-25T10:08:19.556Z,13.88
2018-01-25T10:10:48.176Z,14.10
2018-01-25T10:13:16.801Z,14.00
2018-01-25T10:15:45.229Z,16.50
2018-01-25T10:18:14.009Z,25.62
2018-01-25T10:20:42.649Z,16.95
2018-01-25T10:23:11.076Z,20.02
2018-01-25T10:25:39.548Z,26.80
2018-01-25T10:28:09.292Z,14.32
2018-01-25T10:30:37.715Z,26.45
2018-01-25T10:33:06.181Z,23.35
2018-01-25T10:35:34.599Z,18.85
2018-01-25T10:38:03.014Z,39.00
2018-01-25T10:40:31.720Z,17.80
2018-01-25T10:43:00.177Z,16.55
2018-01-25T10:45:28.602Z,21.30
2018-01-25T10:47:57.663Z,20.35
2018-01-25T10:50:26.122Z,17.40
2018-01-25T10:52:54.535Z,22.73
2018-01-25T10:55:22.995Z,17.17
2018-01-25T10:57:51.606Z,16.60
2018-01-25T11:00:20.190Z,17.35
2018-01-25T11:02:48.706Z,11.73
2018-01-25T11:05:17.306Z,17.02
2018-01-25T11:07:45.865Z,27.30
2018-01-25T11:10:14.548Z,27.23
2018-01-25T11:12:43.037Z,22.62
2018-01-25T11:15:12.025Z,14.85
2018-01-25T11:17:40.506Z,18.80
2018-01-25T11:20:08.981Z,17.15
2018-01-25T11:22:37.393Z,19.42
2018-01-25T11:25:05.838Z,21.35
2018-01-25T11:27:34.255Z,17.60
2018-01-25T11:30:02.671Z,26.85
2018-01-25T11:32:31.381Z,11.63
2018-01-25T11:35:01.395Z,20.00
2018-01-25T11:37:29.879Z,26.67
2018-01-25T11:39:58.389Z,26.08
2018-01-25T11:42:27.842Z,23.65
2018-01-25T11:44:56.386Z,16.67
2018-01-25T11:47:24.892Z,23.62
2018-01-25T11:49:53.360Z,21.23
2018-01-25T11:52:21.856Z,21.10
2018-01-25T11:54:50.377Z,16.92
2018-01-25T11:57:18.859Z,21.15
2018-01-25T11:59:47.545Z,14.30
2018-01-25T12:02:16.224Z,25.33
2018-01-25T12:04:44.700Z,16.83
2018-01-25T12:07:13.246Z,20.42
2018-01-25T12:09:42.312Z,18.75
2018-01-25T12:12:11.704Z,16.87
2018-01-25T12:14:40.123Z,22.80
2018-01-25T12:17:08.604Z,25.55
2018-01-25T12:19:37.157Z,20.35
2018-01-25T12:22:05.701Z,20.50
2018-01-25T12:24:34.178Z,20.35
2018-01-25T12:27:02.605Z,16.02
2018-01-25T12:29:31.041Z,15.80
2018-01-25T12:32:00.367Z,19.35
2018-01-25T12:34:28.826Z,12.55
2018-01-25T12:36:57.271Z,21.35
2018-01-25T12:39:25.745Z,31.12
2018-01-25T12:41:54.169Z,20.75
2018-01-25T12:44:22.643Z,20.45
2018-01-25T12:46:51.289Z,18.90
2018-01-25T12:49:19.778Z,28.25
2018-01-25T12:51:48.205Z,18.75
2018-01-25T12:54:16.773Z,24.52
2018-01-25T12:56:45.288Z,24.35
2018-01-25T12:59:13.744Z,20.30
2018-01-25T13:01:42.623Z,21.52
2018-01-25T13:04:11.618Z,21.65
2018-01-25T13:06:41.243Z,15.90
2018-01-25T13:09:10.504Z,13.18
2018-01-25T13:11:39.024Z,20.27
2018-01-25T13:14:07.476Z,26.67
2018-01-25T13:16:35.964Z,23.00
2018-01-25T13:19:04.473Z,14.90
2018-01-25T13:21:32.925Z,24.55
2018-01-25T13:24:02.173Z,14.10
2018-01-25T13:26:30.679Z,15.13
2018-01-25T13:28:59.097Z,26.37
2018-01-25T13:31:27.979Z,27.63
2018-01-25T13:33:56.500Z,23.25
2018-01-25T13:36:24.977Z,32.00
2018-01-25T13:38:53.908Z,22.00
2018-01-25T13:41:22.350Z,18.65
2018-01-25T13:43:50.913Z,16.33
2018-01-25T13:46:19.475Z,21.00
2018-01-25T13:48:47.942Z,21.27
2018-01-25T13:51:16.533Z,23.75
2018-01-25T13:53:45.897Z,15.20
2018-01-25T13:56:14.506Z,22.13
2018-01-25T13:58:43.120Z,18.40
2018-01-25T14:01:12.618Z,28.10
2018-01-25T14:03:41.896Z,21.55
2018-01-25T14:06:10.398Z,20.02
2018-01-25T14:08:39.614Z,31.90
2018-01-25T14:11:08.101Z,16.98
2018-01-25T14:13:36.641Z,15.73
2018-01-25T14:16:05.163Z,22.02
2018-01-25T14:18:33.623Z,20.33
2018-01-25T14:21:02.075Z,25.17
2018-01-25T14:23:31.380Z,25.98
2018-01-25T14:25:59.823Z,24.08
2018-01-25T14:28:28.265Z,28.40
2018-01-25T14:30:57.331Z,26.00
2018-01-25T14:33:25.798Z,34.35
2018-01-25T14:35:54.285Z,19.33
2018-01-25T14:38:23.069Z,21.65
2018-01-25T14:40:51.521Z,27.77
2018-01-25T14:43:20.053Z,21.20
2018-01-25T14:45:48.659Z,19.73
2018-01-25T14:48:17.180Z,21.87
2018-01-25T14:50:45.758Z,21.08
2018-01-25T14:53:14.785Z,22.48
2018-01-25T14:55:43.321Z,16.05
2018-01-25T14:58:12.099Z,21.85
2018-01-25T15:00:41.204Z,21.25
2018-01-25T15:03:09.626Z,15.50
2018-01-25T15:05:38.068Z,14.25
2018-01-25T15:08:06.516Z,18.23
2018-01-25T15:10:34.940Z,12.88
2018-01-25T15:13:03.626Z,32.08
2018-01-25T15:15:32.073Z,19.25
2018-01-25T15:18:00.500Z,16.65
2018-01-25T15:20:29.025Z,18.23
2018-01-25T15:22:57.491Z,25.12
2018-01-25T15:25:31.573Z,17.50
2018-01-25T15:28:00.041Z,24.60
2018-01-25T15:30:28.496Z,18.27
2018-01-25T15:32:56.922Z,20.58
2018-01-25T15:35:25.395Z,14.52
2018-01-25T15:37:53.825Z,20.20
2018-01-25T15:40:22.253Z,20.75
2018-01-25T15:42:50.749Z,21.02
2018-01-25T15:45:19.326Z,24.95
2018-01-25T15:47:47.891Z,16.45
2018-01-25T15:50:16.485Z,26.50
2018-01-25T15:52:45.072Z,23.23
2018-01-25T15:55:13.599Z,22.13
2018-01-25T15:57:42.187Z,18.35
2018-01-25T16:00:10.697Z,20.42
2018-01-25T16:02:39.192Z,21.60
2018-01-25T16:05:07.649Z,34.47
2018-01-25T16:07:36.080Z,27.62
2018-01-25T16:10:04.532Z,24.87
2018-01-25T16:12:33.089Z,23.50
2018-01-25T16:15:03.006Z,30.20
2018-01-25T16:17:31.478Z,16.60
2018-01-25T16:19:59.969Z,21.35
2018-01-25T16:22:28.409Z,23.12
2018-01-25T16:24:56.823Z,25.88
2018-01-25T16:27:25.301Z,21.37
2018-01-25T16:29:53.733Z,23.20
2018-01-25T16:32:22.190Z,21.85
2018-01-25T16:34:50.777Z,28.40
2018-01-25T16:37:19.248Z,25.52
2018-01-25T16:39:47.886Z,16.73
2018-01-25T16:42:19.939Z,21.17
2018-01-25T16:44:52.333Z,25.40
2018-01-25T16:47:22.358Z,17.33
2018-01-25T16:49:50.823Z,32.58
2018-01-25T16:52:19.301Z,27.75
2018-01-25T16:54:51.961Z,23.58
2018-01-25T16:57:25.809Z,29.42
2018-01-25T16:59:54.304Z,26.90
2018-01-25T17:02:22.794Z,53.97
2018-01-25T17:04:51.499Z,27.10
2018-01-25T17:07:21.323Z,31.87
2018-01-25T17:09:50.904Z,23.40
2018-01-25T17:12:19.424Z,24.25
2018-01-25T17:14:47.990Z,25.10
2018-01-25T17:17:16.448Z,22.27
2018-01-25T17:19:46.657Z,28.30
2018-01-25T17:22:17.364Z,18.45
2018-01-25T17:24:54.388Z,30.58
2018-01-25T17:27:24.365Z,27.42
2018-01-25T17:29:53.393Z,24.92
2018-01-25T17:32:21.869Z,29.40
2018-01-25T17:34:50.872Z,24.12
2018-01-25T17:37:19.844Z,29.60
2018-01-25T17:39:48.453Z,28.20
2018-01-25T17:42:17.053Z,24.12
2018-01-25T17:44:46.642Z,29.20
2018-01-25T17:47:15.529Z,16.05
2018-01-25T17:49:45.095Z,24.48
2018-01-25T17:52:13.748Z,20.48
2018-01-25T17:54:42.600Z,18.87
2018-01-25T17:57:13.806Z,20.73
2018-01-25T17:59:42.294Z,22.42
2018-01-25T18:02:10.799Z,22.02
2018-01-25T18:04:41.020Z,27.67
2018-01-25T18:07:09.719Z,28.00
2018-01-25T18:09:38.602Z,31.95
2018-01-25T18:12:07.179Z,43.30
2018-01-25T18:14:35.654Z,30.00
2018-01-25T18:17:05.773Z,17.02
2018-01-25T18:19:35.208Z,24.15
2018-01-25T18:22:04.462Z,24.55
2018-01-25T18:24:33.779Z,23.58
2018-01-25T18:27:03.052Z,27.08
2018-01-25T18:29:31.493Z,28.50
2018-01-25T18:31:59.901Z,31.95
2018-01-25T18:34:28.934Z,27.15
2018-01-25T18:36:57.387Z,24.02
2018-01-25T18:39:25.988Z,24.45
2018-01-25T18:41:54.465Z,27.45
2018-01-25T18:44:22.911Z,25.65
2018-01-25T18:46:51.428Z,29.63
2018-01-25T18:49:19.961Z,27.05
2018-01-25T18:51:48.510Z,25.45
2018-01-25T18:54:17.032Z,25.95
2018-01-25T18:56:45.527Z,34.05
2018-01-25T18:59:22.686Z,26.52
2018-01-25T19:01:53.483Z,41.20
2018-01-25T19:04:21.925Z,40.12
2018-01-25T19:06:50.410Z,51.20
2018-01-25T19:09:19.021Z,43.20
2018-01-25T19:11:47.497Z,38.25
2018-01-25T19:14:15.994Z,28.27
2018-01-25T19:16:44.698Z,31.00
2018-01-25T19:19:13.181Z,31.70
2018-01-25T19:21:41.687Z,33.58
2018-01-25T19:24:10.655Z,38.15
2018-01-25T19:26:39.279Z,39.95
2018-01-25T19:29:07.721Z,35.28
2018-01-25T19:31:36.848Z,31.45
2018-01-25T19:34:05.291Z,43.87
2018-01-25T19:36:33.736Z,48.83
2018-01-25T19:39:02.460Z,36.67
2018-01-25T19:41:31.785Z,44.78
2018-01-25T19:44:00.377Z,33.65
2018-01-25T19:46:29.564Z,40.72
2018-01-25T19:48:59.885Z,31.70
2018-01-25T19:51:28.331Z,31.23
2018-01-25T19:53:56.815Z,39.67
2018-01-25T19:56:25.247Z,55.47
2018-01-25T19:58:53.669Z,39.25
2018-01-25T20:01:22.136Z,43.25
2018-01-25T20:03:50.601Z,49.50
2018-01-25T20:06:19.261Z,42.08
2018-01-25T20:08:48.444Z,40.33
2018-01-25T20:11:17.234Z,42.00
2018-01-25T20:13:45.764Z,55.10
2018-01-25T20:16:14.444Z,46.72
2018-01-25T20:18:43.239Z,37.78
2018-01-25T20:21:11.820Z,37.47
2018-01-25T20:23:41.003Z,60.53
2018-01-25T20:26:09.442Z,42.97
2018-01-25T20:28:37.877Z,42.05
2018-01-25T20:31:06.373Z,34.92
2018-01-25T20:33:34.815Z,50.70
2018-01-25T20:36:03.283Z,47.62
2018-01-25T20:38:32.391Z,42.22
2018-01-25T20:41:00.812Z,47.38
2018-01-25T20:43:29.256Z,42.90
2018-01-25T20:45:58.548Z,47.67
2018-01-25T20:48:27.019Z,53.03
2018-01-25T20:50:55.457Z,45.70
2018-01-25T20:53:24.694Z,50.92
2018-01-25T20:55:53.245Z,48.92
2018-01-25T20:58:21.703Z,51.13
2018-01-25T21:00:51.092Z,64.18
2018-01-25T21:03:19.531Z,41.53
2018-01-25T21:05:48.039Z,45.45
2018-01-25T21:08:17.188Z,67.90
2018-01-25T21:10:45.927Z,43.42
2018-01-25T21:13:14.762Z,55.08
2018-01-25T21:15:43.831Z,60.00
2018-01-25T21:18:12.751Z,57.80
2018-01-25T21:20:41.408Z,53.92
2018-01-25T21:23:10.608Z,52.62
2018-01-25T21:25:39.085Z,53.28
2018-01-25T21:28:08.472Z,56.42
2018-01-25T21:30:36.948Z,47.25
2018-01-25T21:33:05.375Z,60.28
2018-01-25T21:35:34.771Z,45.70
2018-01-25T21:38:03.334Z,55.35
2018-01-25T21:40:31.840Z,46.53
2018-01-25T21:43:00.267Z,63.42
2018-01-25T21:45:29.302Z,52.70
2018-01-25T21:47:57.802Z,56.88
2018-01-25T21:50:26.246Z,53.78
2018-01-25T21:52:54.747Z,57.90
2018-01-25T21:55:23.295Z,46.30
2018-01-25T21:57:51.781Z,51.80
2018-01-25T22:00:20.886Z,52.22
2018-01-25T22:02:49.397Z,52.72
2018-01-25T22:05:18.328Z,52.67
2018-01-25T22:07:46.972Z,54.13
2018-01-25T22:10:15.500Z,54.38
2018-01-25T22:12:43.979Z,54.78
2018-01-25T22:15:12.510Z,51.95
2018-01-25T22:17:40.942Z,66.03
2018-01-25T22:20:09.374Z,57.05
2018-01-25T22:22:38.660Z,56.78
2018-01-25T22:25:07.079Z,73.37
2018-01-25T22:27:35.518Z,53.05
2018-01-25T22:30:04.343Z,58.90
2018-01-25T22:32:32.803Z,60.30
2018-01-25T22:35:01.238Z,62.45
2018-01-25T22:37:29.704Z,62.62
2018-01-25T22:39:58.140Z,56.78
2018-01-25T22:42:26.561Z,62.90
2018-01-25T22:44:55.044Z,60.55
2018-01-25T22:47:23.480Z,59.20
2018-01-25T22:49:51.951Z,65.28
2018-01-25T22:52:20.607Z,69.07
2018-01-25T22:54:49.115Z,65.93
2018-01-25T22:57:17.569Z,59.58
2018-01-25T22:59:46.997Z,55.38
2018-01-25T23:02:15.662Z,67.45
2018-01-25T23:04:44.333Z,74.55
2018-01-25T23:07:13.090Z,65.72
2018-01-25T23:09:41.590Z,57.85
2018-01-25T23:12:10.742Z,68.40
2018-01-25T23:14:39.223Z,73.32
2018-01-25T23:17:07.659Z,71.57
2018-01-25T23:19:36.378Z,66.12
2018-01-25T23:22:04.947Z,61.35
2018-01-25T23:24:33.423Z,63.87
2018-01-25T23:27:01.951Z,67.87
2018-01-25T23:29:30.496Z,56.30
2018-01-25T23:31:58.907Z,69.97
2018-01-25T23:34:27.352Z,66.78
2018-01-25T23:36:55.862Z,63.42
2018-01-25T23:39:24.327Z,66.82
2018-01-25T23:41:52.768Z,57.42
2018-01-25T23:44:22.432Z,65.15
2018-01-25T23:46:51.009Z,62.95
2018-01-25T23:49:19.503Z,64.47
2018-01-25T23:51:48.088Z,69.07
2018-01-25T23:54:16.569Z,71.95
2018-01-25T23:56:45.132Z,67.12
2018-01-25T23:59:14.305Z,66.90
